sensor_id;sensor_type;location;lat;lon;timestamp;pressure;altitude;pressure_sealevel;temperature;humidity
61472;BME280;47337;54.068;12.114;2022-07-05T00:00:43;101500.94;;;13.18;100.00
61472;BME280;47337;54.068;12.114;2022-07-05T00:03:08;101501.84;;;13.21;100.00
61472;BME280;47337;54.068;12.114;2022-07-05T00:05:37;101501.69;;;13.11;100.00
61472;BME280;47337;54.068;12.114;2022-07-05T00:08:03;101502.53;;;13.09;100.00
61472;BME280;47337;54.068;12.114;2022-07-05T00:10:33;101498.06;;;13.00;100.00
61472;BME280;47337;54.068;12.114;2022-07-05T00:12:58;101501.56;;;12.99;100.00
61472;BME280;47337;54.068;12.114;2022-07-05T00:15:24;101505.06;;;12.98;100.00
61472;BME280;47337;54.068;12.114;2022-07-05T00:17:49;101494.47;;;12.97;100.00
61472;BME280;47337;54.068;12.114;2022-07-05T00:20:15;101504.00;;;12.86;100.00
61472;BME280;47337;54.068;12.114;2022-07-05T00:22:40;101501.31;;;12.81;100.00
61472;BME280;47337;54.068;12.114;2022-07-05T00:25:06;101503.06;;;12.80;100.00
61472;BME280;47337;54.068;12.114;2022-07-05T00:27:32;101497.72;;;12.76;100.00
61472;BME280;47337;54.068;12.114;2022-07-05T00:29:57;101501.19;;;12.72;100.00
61472;BME280;47337;54.068;12.114;2022-07-05T00:32:23;101501.19;;;12.72;100.00
61472;BME280;47337;54.068;12.114;2022-07-05T00:34:48;101492.34;;;12.67;100.00
61472;BME280;47337;54.068;12.114;2022-07-05T00:37:15;101498.47;;;12.66;100.00
61472;BME280;47337;54.068;12.114;2022-07-05T00:39:40;101507.19;;;12.62;100.00
61472;BME280;47337;54.068;12.114;2022-07-05T00:42:06;101504.56;;;12.62;100.00
61472;BME280;47337;54.068;12.114;2022-07-05T00:44:36;101498.38;;;12.58;100.00
61472;BME280;47337;54.068;12.114;2022-07-05T00:47:04;101504.53;;;12.59;100.00
61472;BME280;47337;54.068;12.114;2022-07-05T00:49:31;101500.16;;;12.59;100.00
61472;BME280;47337;54.068;12.114;2022-07-05T00:51:57;101509.78;;;12.57;100.00
61472;BME280;47337;54.068;12.114;2022-07-05T00:54:27;101501.88;;;12.57;100.00
61472;BME280;47337;54.068;12.114;2022-07-05T00:56:53;101501.00;;;12.57;100.00
61472;BME280;47337;54.068;12.114;2022-07-05T00:59:19;101497.50;;;12.58;100.00
61472;BME280;47337;54.068;12.114;2022-07-05T01:01:44;101501.88;;;12.57;100.00
61472;BME280;47337;54.068;12.114;2022-07-05T01:04:11;101507.97;;;12.55;100.00
61472;BME280;47337;54.068;12.114;2022-07-05T01:06:38;101508.00;;;12.56;100.00
61472;BME280;47337;54.068;12.114;2022-07-05T01:09:05;101497.47;;;12.56;100.00
61472;BME280;47337;54.068;12.114;2022-07-05T01:11:30;101502.78;;;12.59;100.00
61472;BME280;47337;54.068;12.114;2022-07-05T01:13:58;101500.16;;;12.59;100.00
61472;BME280;47337;54.068;12.114;2022-07-05T01:16:24;101497.47;;;12.56;100.00
61472;BME280;47337;54.068;12.114;2022-07-05T01:18:50;101495.66;;;12.54;100.00
61472;BME280;47337;54.068;12.114;2022-07-05T01:21:17;101503.53;;;12.52;100.00
61472;BME280;47337;54.068;12.114;2022-07-05T01:23:45;101500.00;;;12.49;100.00
61472;BME280;47337;54.068;12.114;2022-07-05T01:26:10;101493.75;;;12.42;100.00
61472;BME280;47337;54.068;12.114;2022-07-05T01:28:36;101499.09;;;12.46;100.00
61472;BME280;47337;54.068;12.114;2022-07-05T01:31:01;101495.56;;;12.46;100.00
61472;BME280;47337;54.068;12.114;2022-07-05T01:33:32;101506.88;;;12.37;100.00
61472;BME280;47337;54.068;12.114;2022-07-05T01:35:58;101508.50;;;12.31;100.00
61472;BME280;47337;54.068;12.114;2022-07-05T01:38:25;101507.59;;;12.27;100.00
61472;BME280;47337;54.068;12.114;2022-07-05T01:40:50;101515.34;;;12.20;100.00
61472;BME280;47337;54.068;12.114;2022-07-05T01:43:23;101514.44;;;12.16;100.00
61472;BME280;47337;54.068;12.114;2022-07-05T01:45:49;101516.22;;;12.17;100.00
61472;BME280;47337;54.068;12.114;2022-07-05T01:48:19;101520.50;;;12.12;100.00
61472;BME280;47337;54.068;12.114;2022-07-05T01:50:51;101516.94;;;12.10;100.00
61472;BME280;47337;54.068;12.114;2022-07-05T01:53:18;101517.03;;;12.15;100.00
61472;BME280;47337;54.068;12.114;2022-07-05T01:55:45;101523.22;;;12.17;100.00
61472;BME280;47337;54.068;12.114;2022-07-05T01:58:11;101530.22;;;12.16;100.00
61472;BME280;47337;54.068;12.114;2022-07-05T02:00:47;101526.72;;;12.16;100.00
61472;BME280;47337;54.068;12.114;2022-07-05T02:03:14;101523.25;;;12.18;100.00
61472;BME280;47337;54.068;12.114;2022-07-05T02:05:41;101517.94;;;12.17;100.00
61472;BME280;47337;54.068;12.114;2022-07-05T02:08:07;101524.03;;;12.14;100.00
61472;BME280;47337;54.068;12.114;2022-07-05T02:10:37;101528.44;;;12.15;100.00
61472;BME280;47337;54.068;12.114;2022-07-05T02:13:03;101533.72;;;12.15;100.00
61472;BME280;47337;54.068;12.114;2022-07-05T02:15:33;101527.47;;;12.10;100.00
61472;BME280;47337;54.068;12.114;2022-07-05T02:18:00;101527.41;;;12.05;100.00
61472;BME280;47337;54.068;12.114;2022-07-05T02:20:26;101525.56;;;12.00;100.00
61472;BME280;47337;54.068;12.114;2022-07-05T02:22:52;101528.09;;;11.94;100.00
61472;BME280;47337;54.068;12.114;2022-07-05T02:25:20;101520.13;;;11.89;100.00
61472;BME280;47337;54.068;12.114;2022-07-05T02:27:48;101531.53;;;11.90;100.00
61472;BME280;47337;54.068;12.114;2022-07-05T02:30:14;101533.25;;;11.88;100.00
61472;BME280;47337;54.068;12.114;2022-07-05T02:32:41;101530.72;;;11.94;100.00
61472;BME280;47337;54.068;12.114;2022-07-05T02:35:08;101535.88;;;11.88;100.00
61472;BME280;47337;54.068;12.114;2022-07-05T02:37:34;101536.63;;;11.81;100.00
61472;BME280;47337;54.068;12.114;2022-07-05T02:40:00;101547.16;;;11.81;100.00
61472;BME280;47337;54.068;12.114;2022-07-05T02:42:27;101546.22;;;11.76;100.00
61472;BME280;47337;54.068;12.114;2022-07-05T02:44:55;101545.25;;;11.73;100.00
61472;BME280;47337;54.068;12.114;2022-07-05T02:47:23;101551.34;;;11.71;100.00
61472;BME280;47337;54.068;12.114;2022-07-05T02:49:51;101552.22;;;11.71;100.00
61472;BME280;47337;54.068;12.114;2022-07-05T02:52:20;101559.19;;;11.69;100.00
61472;BME280;47337;54.068;12.114;2022-07-05T02:54:45;101558.31;;;11.69;100.00
61472;BME280;47337;54.068;12.114;2022-07-05T02:57:11;101562.66;;;11.67;100.00
61472;BME280;47337;54.068;12.114;2022-07-05T02:59:36;101563.50;;;11.66;100.00
61472;BME280;47337;54.068;12.114;2022-07-05T03:02:01;101567.94;;;11.68;100.00
61472;BME280;47337;54.068;12.114;2022-07-05T03:04:27;101568.00;;;11.71;100.00
61472;BME280;47337;54.068;12.114;2022-07-05T03:06:52;101575.88;;;11.70;100.00
61472;BME280;47337;54.068;12.114;2022-07-05T03:09:20;101561.03;;;11.73;100.00
61472;BME280;47337;54.068;12.114;2022-07-05T03:11:45;101577.53;;;11.66;100.00
61472;BME280;47337;54.068;12.114;2022-07-05T03:14:13;101584.56;;;11.67;100.00
61472;BME280;47337;54.068;12.114;2022-07-05T03:16:38;101578.38;;;11.65;100.00
61472;BME280;47337;54.068;12.114;2022-07-05T03:19:04;101581.91;;;11.64;100.00
61472;BME280;47337;54.068;12.114;2022-07-05T03:21:29;101580.16;;;11.66;100.00
61472;BME280;47337;54.068;12.114;2022-07-05T03:23:57;101587.28;;;11.70;100.00
61472;BME280;47337;54.068;12.114;2022-07-05T03:26:22;101587.34;;;11.73;100.00
61472;BME280;47337;54.068;12.114;2022-07-05T03:28:48;101583.31;;;11.92;100.00
61472;BME280;47337;54.068;12.114;2022-07-05T03:31:13;101590.75;;;12.15;100.00
61472;BME280;47337;54.068;12.114;2022-07-05T03:33:39;101584.47;;;12.62;100.00
61472;BME280;47337;54.068;12.114;2022-07-05T03:36:06;101576.78;;;12.76;100.00
61472;BME280;47337;54.068;12.114;2022-07-05T03:38:32;101572.47;;;12.82;100.00
61472;BME280;47337;54.068;12.114;2022-07-05T03:40:58;101561.03;;;12.82;100.00
61472;BME280;47337;54.068;12.114;2022-07-05T03:43:26;101558.41;;;12.82;100.00
61472;BME280;47337;54.068;12.114;2022-07-05T03:45:51;101548.94;;;12.96;100.00
61472;BME280;47337;54.068;12.114;2022-07-05T03:48:16;101545.00;;;13.29;100.00
61472;BME280;47337;54.068;12.114;2022-07-05T03:50:43;101545.09;;;14.30;100.00
61472;BME280;47337;54.068;12.114;2022-07-05T03:53:08;101528.06;;;15.32;100.00
61472;BME280;47337;54.068;12.114;2022-07-05T03:55:34;101508.75;;;15.76;100.00
61472;BME280;47337;54.068;12.114;2022-07-05T03:57:59;101495.44;;;16.67;100.00
61472;BME280;47337;54.068;12.114;2022-07-05T04:00:24;101459.63;;;17.53;100.00
61472;BME280;47337;54.068;12.114;2022-07-05T04:02:50;101420.75;;;18.43;99.21
61472;BME280;47337;54.068;12.114;2022-07-05T04:05:16;101396.66;;;19.21;88.92
61472;BME280;47337;54.068;12.114;2022-07-05T04:07:53;101373.59;;;19.20;83.27
61472;BME280;47337;54.068;12.114;2022-07-05T04:10:19;101362.91;;;19.77;80.48
61472;BME280;47337;54.068;12.114;2022-07-05T04:12:45;101359.69;;;20.07;78.42
61472;BME280;47337;54.068;12.114;2022-07-05T04:15:10;101342.84;;;20.50;75.88
61472;BME280;47337;54.068;12.114;2022-07-05T04:17:46;101323.31;;;21.25;73.23
61472;BME280;47337;54.068;12.114;2022-07-05T04:20:11;101307.81;;;22.36;69.70
61472;BME280;47337;54.068;12.114;2022-07-05T04:22:36;101283.97;;;22.28;67.50
61472;BME280;47337;54.068;12.114;2022-07-05T04:25:02;101283.69;;;22.08;66.68
61472;BME280;47337;54.068;12.114;2022-07-05T04:27:47;101289.75;;;22.44;65.83
61472;BME280;47337;54.068;12.114;2022-07-05T04:30:13;101284.72;;;23.44;64.48
61472;BME280;47337;54.068;12.114;2022-07-05T04:32:39;101266.31;;;23.84;62.32
61472;BME280;47337;54.068;12.114;2022-07-05T04:35:05;101254.53;;;24.58;60.57
61472;BME280;47337;54.068;12.114;2022-07-05T04:37:34;101243.47;;;24.67;59.84
61472;BME280;47337;54.068;12.114;2022-07-05T04:40:00;101250.91;;;24.14;60.07
61472;BME280;47337;54.068;12.114;2022-07-05T04:42:25;101250.69;;;24.65;59.09
61472;BME280;47337;54.068;12.114;2022-07-05T04:44:51;101244.84;;;24.77;58.61
61472;BME280;47337;54.068;12.114;2022-07-05T04:47:19;101248.94;;;24.86;58.62
61472;BME280;47337;54.068;12.114;2022-07-05T04:49:44;101234.84;;;25.23;57.19
61472;BME280;47337;54.068;12.114;2022-07-05T04:52:09;101228.16;;;26.50;54.95
61472;BME280;47337;54.068;12.114;2022-07-05T04:54:36;101216.06;;;26.03;54.93
61472;BME280;47337;54.068;12.114;2022-07-05T04:57:01;101223.72;;;27.04;53.52
61472;BME280;47337;54.068;12.114;2022-07-05T04:59:29;101209.28;;;27.90;52.10
61472;BME280;47337;54.068;12.114;2022-07-05T05:01:54;101197.38;;;27.94;51.01
61472;BME280;47337;54.068;12.114;2022-07-05T05:04:20;101195.63;;;27.93;50.87
61472;BME280;47337;54.068;12.114;2022-07-05T05:06:45;101200.69;;;27.99;50.57
61472;BME280;47337;54.068;12.114;2022-07-05T05:09:10;101197.69;;;28.21;49.64
61472;BME280;47337;54.068;12.114;2022-07-05T05:11:36;101211.50;;;28.79;49.42
61472;BME280;47337;54.068;12.114;2022-07-05T05:14:01;101212.44;;;28.47;49.35
61472;BME280;47337;54.068;12.114;2022-07-05T05:16:29;101216.56;;;28.05;50.26
61472;BME280;47337;54.068;12.114;2022-07-05T05:18:55;101230.94;;;28.38;49.93
61472;BME280;47337;54.068;12.114;2022-07-05T05:21:23;101201.38;;;28.35;48.21
61472;BME280;47337;54.068;12.114;2022-07-05T05:23:48;101208.56;;;27.53;49.53
61472;BME280;47337;54.068;12.114;2022-07-05T05:26:13;101243.38;;;28.25;49.57
61472;BME280;47337;54.068;12.114;2022-07-05T05:28:39;101227.19;;;28.08;49.24
61472;BME280;47337;54.068;12.114;2022-07-05T05:31:07;101229.50;;;28.31;49.01
61472;BME280;47337;54.068;12.114;2022-07-05T05:33:33;101216.66;;;28.03;48.69
61472;BME280;47337;54.068;12.114;2022-07-05T05:35:59;101233.69;;;28.84;48.56
61472;BME280;47337;54.068;12.114;2022-07-05T05:38:25;101221.75;;;27.42;49.36
61472;BME280;47337;54.068;12.114;2022-07-05T05:40:50;101244.06;;;26.38;51.82
61472;BME280;47337;54.068;12.114;2022-07-05T05:43:16;101253.28;;;26.51;52.12
61472;BME280;47337;54.068;12.114;2022-07-05T05:45:41;101247.59;;;27.46;50.19
61472;BME280;47337;54.068;12.114;2022-07-05T05:48:06;101244.09;;;27.27;50.32
61472;BME280;47337;54.068;12.114;2022-07-05T05:50:34;101259.78;;;27.02;50.99
61472;BME280;47337;54.068;12.114;2022-07-05T05:53:00;101234.28;;;26.16;51.45
61472;BME280;47337;54.068;12.114;2022-07-05T05:55:28;101253.00;;;24.53;54.75
61472;BME280;47337;54.068;12.114;2022-07-05T05:57:57;101273.84;;;24.46;54.79
61472;BME280;47337;54.068;12.114;2022-07-05T06:00:34;101284.34;;;24.52;54.99
61472;BME280;47337;54.068;12.114;2022-07-05T06:03:00;101302.59;;;23.94;56.98
61472;BME280;47337;54.068;12.114;2022-07-05T06:05:25;101306.19;;;23.17;57.97
61472;BME280;47337;54.068;12.114;2022-07-05T06:07:55;101314.94;;;23.22;58.21
61472;BME280;47337;54.068;12.114;2022-07-05T06:10:32;101336.19;;;22.71;59.90
61472;BME280;47337;54.068;12.114;2022-07-05T06:13:01;101352.03;;;22.18;61.33
61472;BME280;47337;54.068;12.114;2022-07-05T06:15:30;101373.06;;;22.00;62.71
61472;BME280;47337;54.068;12.114;2022-07-05T06:17:56;101386.72;;;22.21;62.74
61472;BME280;47337;54.068;12.114;2022-07-05T06:20:27;101385.28;;;22.10;62.42
61472;BME280;47337;54.068;12.114;2022-07-05T06:22:56;101368.75;;;21.60;62.37
61472;BME280;47337;54.068;12.114;2022-07-05T06:25:22;101390.72;;;21.36;64.14
61472;BME280;47337;54.068;12.114;2022-07-05T06:27:52;101398.13;;;21.25;64.35
61472;BME280;47337;54.068;12.114;2022-07-05T06:30:19;101407.50;;;21.41;64.59
61472;BME280;47337;54.068;12.114;2022-07-05T06:32:46;101404.78;;;21.44;64.74
61472;BME280;47337;54.068;12.114;2022-07-05T06:35:13;101392.78;;;21.25;64.38
61472;BME280;47337;54.068;12.114;2022-07-05T06:40:17;101397.97;;;21.31;64.67
61472;BME280;47337;54.068;12.114;2022-07-05T06:42:43;101398.38;;;21.12;65.00
61472;BME280;47337;54.068;12.114;2022-07-05T06:45:08;101395.91;;;21.03;64.68
61472;BME280;47337;54.068;12.114;2022-07-05T06:47:37;101383.31;;;21.08;64.11
61472;BME280;47337;54.068;12.114;2022-07-05T06:50:05;101382.72;;;21.36;63.63
61472;BME280;47337;54.068;12.114;2022-07-05T06:52:32;101381.19;;;21.61;63.03
61472;BME280;47337;54.068;12.114;2022-07-05T06:55:00;101372.63;;;21.47;62.76
61472;BME280;47337;54.068;12.114;2022-07-05T06:57:26;101381.38;;;21.18;62.97
61472;BME280;47337;54.068;12.114;2022-07-05T06:59:52;101381.28;;;21.21;63.38
61472;BME280;47337;54.068;12.114;2022-07-05T07:02:18;101398.13;;;21.25;63.72
61472;BME280;47337;54.068;12.114;2022-07-05T07:04:44;101385.41;;;20.96;63.58
61472;BME280;47337;54.068;12.114;2022-07-05T07:07:10;101405.50;;;21.12;64.30
61472;BME280;47337;54.068;12.114;2022-07-05T07:10:01;101384.03;;;21.18;62.97
61472;BME280;47337;54.068;12.114;2022-07-05T07:12:26;101377.22;;;21.42;62.86
61472;BME280;47337;54.068;12.114;2022-07-05T07:14:52;101387.13;;;21.72;62.65
61472;BME280;47337;54.068;12.114;2022-07-05T07:17:20;101379.22;;;21.32;62.74
61472;BME280;47337;54.068;12.114;2022-07-05T07:19:46;101378.13;;;21.02;63.18
61472;BME280;47337;54.068;12.114;2022-07-05T07:22:11;101369.88;;;21.13;62.20
61472;BME280;47337;54.068;12.114;2022-07-05T07:24:36;101364.88;;;21.38;61.95
61472;BME280;47337;54.068;12.114;2022-07-05T07:27:02;101341.59;;;21.41;60.92
61472;BME280;47337;54.068;12.114;2022-07-05T07:29:27;101353.81;;;21.85;60.53
61472;BME280;47337;54.068;12.114;2022-07-05T07:31:53;101351.16;;;21.14;60.68
61472;BME280;47337;54.068;12.114;2022-07-05T07:34:18;101346.31;;;20.93;60.53
61472;BME280;47337;54.068;12.114;2022-07-05T07:36:44;101363.06;;;20.60;61.44
61472;BME280;47337;54.068;12.114;2022-07-05T07:39:09;101375.34;;;20.68;61.70
61472;BME280;47337;54.068;12.114;2022-07-05T07:41:35;101369.84;;;21.14;61.22
61472;BME280;47337;54.068;12.114;2022-07-05T07:44:00;101373.34;;;21.16;61.41
61472;BME280;47337;54.068;12.114;2022-07-05T07:46:26;101364.56;;;21.50;60.55
61472;BME280;47337;54.068;12.114;2022-07-05T07:48:52;101362.09;;;21.41;60.24
61472;BME280;47337;54.068;12.114;2022-07-05T07:51:20;101374.16;;;21.57;60.49
61472;BME280;47337;54.068;12.114;2022-07-05T07:53:47;101363.91;;;21.74;60.01
61472;BME280;47337;54.068;12.114;2022-07-05T07:56:14;101371.09;;;22.37;59.54
61472;BME280;47337;54.068;12.114;2022-07-05T07:58:40;101329.13;;;22.39;57.39
61472;BME280;47337;54.068;12.114;2022-07-05T08:01:05;101321.16;;;22.96;56.40
61472;BME280;47337;54.068;12.114;2022-07-05T08:03:36;101320.75;;;22.81;56.53
61472;BME280;47337;54.068;12.114;2022-07-05T08:06:02;101321.16;;;22.38;56.89
61472;BME280;47337;54.068;12.114;2022-07-05T08:08:29;101328.09;;;22.14;57.42
61472;BME280;47337;54.068;12.114;2022-07-05T08:10:55;101321.13;;;21.74;57.22
61472;BME280;47337;54.068;12.114;2022-07-05T08:13:20;101327.88;;;22.21;57.37
61472;BME280;47337;54.068;12.114;2022-07-05T08:15:46;101309.19;;;22.49;55.67
61472;BME280;47337;54.068;12.114;2022-07-05T08:18:11;101309.66;;;22.63;55.13
61472;BME280;47337;54.068;12.114;2022-07-05T08:20:59;101278.81;;;22.52;53.81
61472;BME280;47337;54.068;12.114;2022-07-05T08:23:43;101277.91;;;23.09;52.77
61472;BME280;47337;54.068;12.114;2022-07-05T08:26:08;101286.59;;;23.15;53.02
61472;BME280;47337;54.068;12.114;2022-07-05T08:28:36;101293.00;;;23.38;52.83
61472;BME280;47337;54.068;12.114;2022-07-05T08:31:01;101308.53;;;23.79;53.14
61472;BME280;47337;54.068;12.114;2022-07-05T08:33:27;101282.25;;;23.64;52.15
61472;BME280;47337;54.068;12.114;2022-07-05T08:35:52;101280.31;;;23.16;52.42
61472;BME280;47337;54.068;12.114;2022-07-05T08:38:18;101311.41;;;22.94;54.14
61472;BME280;47337;54.068;12.114;2022-07-05T08:40:50;101310.69;;;22.59;53.87
61472;BME280;47337;54.068;12.114;2022-07-05T08:43:20;101301.22;;;22.18;54.51
61472;BME280;47337;54.068;12.114;2022-07-05T08:45:47;101306.25;;;21.64;55.97
61472;BME280;47337;54.068;12.114;2022-07-05T08:48:16;101330.63;;;21.86;56.04
61472;BME280;47337;54.068;12.114;2022-07-05T08:50:42;101355.78;;;22.44;56.26
61472;BME280;47337;54.068;12.114;2022-07-05T08:53:09;101306.16;;;22.32;54.21
61472;BME280;47337;54.068;12.114;2022-07-05T08:55:34;101308.19;;;22.53;54.21
61472;BME280;47337;54.068;12.114;2022-07-05T08:58:01;101328.78;;;22.81;54.89
61472;BME280;47337;54.068;12.114;2022-07-05T10:06:26;101280.44;;;21.63;52.12
61472;BME280;47337;54.068;12.114;2022-07-05T10:08:55;101285.50;;;21.74;52.80
61472;BME280;47337;54.068;12.114;2022-07-05T10:11:25;101332.63;;;22.12;53.81
61472;BME280;47337;54.068;12.114;2022-07-05T10:13:54;101301.16;;;21.87;53.48
61472;BME280;47337;54.068;12.114;2022-07-05T10:16:23;101317.84;;;21.99;53.87
61472;BME280;47337;54.068;12.114;2022-07-05T10:18:54;101313.03;;;22.11;53.42
61472;BME280;47337;54.068;12.114;2022-07-05T10:21:20;101306.13;;;21.70;53.65
61472;BME280;47337;54.068;12.114;2022-07-05T10:23:48;101295.81;;;21.87;53.14
61472;BME280;47337;54.068;12.114;2022-07-05T10:26:16;101297.94;;;22.09;53.08
61472;BME280;47337;54.068;12.114;2022-07-05T10:28:50;101295.38;;;22.04;52.22
61472;BME280;47337;54.068;12.114;2022-07-05T10:31:16;101313.34;;;22.30;52.76
61472;BME280;47337;54.068;12.114;2022-07-05T10:33:43;101322.97;;;22.67;52.91
61472;BME280;47337;54.068;12.114;2022-07-05T10:36:13;101317.25;;;22.79;52.93
61472;BME280;47337;54.068;12.114;2022-07-05T10:38:43;101327.03;;;23.08;52.86
61472;BME280;47337;54.068;12.114;2022-07-05T10:41:14;101307.13;;;23.16;52.02
61472;BME280;47337;54.068;12.114;2022-07-05T10:43:42;101275.94;;;23.40;50.33
61472;BME280;47337;54.068;12.114;2022-07-05T10:46:08;101275.38;;;23.04;50.82
61472;BME280;47337;54.068;12.114;2022-07-05T10:48:34;101268.91;;;22.83;51.74
61472;BME280;47337;54.068;12.114;2022-07-05T11:04:07;101191.19;;;22.57;48.16
61472;BME280;47337;54.068;12.114;2022-07-05T11:16:44;101204.06;;;23.99;46.04
61472;BME280;47337;54.068;12.114;2022-07-05T11:19:15;101189.22;;;23.16;46.73
61472;BME280;47337;54.068;12.114;2022-07-05T11:22:04;101188.69;;;23.07;46.50
61472;BME280;47337;54.068;12.114;2022-07-05T11:24:37;101195.47;;;23.17;46.61
61472;BME280;47337;54.068;12.114;2022-07-05T11:27:10;101195.66;;;23.11;46.51
61472;BME280;47337;54.068;12.114;2022-07-05T11:32:14;101216.84;;;22.92;47.81
61472;BME280;47337;54.068;12.114;2022-07-05T11:34:41;101219.75;;;23.37;47.33
61472;BME280;47337;54.068;12.114;2022-07-05T11:42:35;101211.84;;;23.59;47.41
61472;BME280;47337;54.068;12.114;2022-07-05T11:45:08;101222.94;;;23.22;47.96
61472;BME280;47337;54.068;12.114;2022-07-05T11:47:37;101215.22;;;22.88;48.00
61472;BME280;47337;54.068;12.114;2022-07-05T11:50:03;101220.44;;;22.91;48.25
61472;BME280;47337;54.068;12.114;2022-07-05T11:52:33;101223.84;;;23.22;48.27
61472;BME280;47337;54.068;12.114;2022-07-05T11:55:00;101218.44;;;23.49;47.14
61472;BME280;47337;54.068;12.114;2022-07-05T11:57:29;101214.59;;;23.57;47.43
61472;BME280;47337;54.068;12.114;2022-07-05T11:59:54;101225.88;;;23.41;47.84
61472;BME280;47337;54.068;12.114;2022-07-05T12:02:19;101244.13;;;23.56;48.24
61472;BME280;47337;54.068;12.114;2022-07-05T12:04:52;101219.91;;;23.32;47.74
61472;BME280;47337;54.068;12.114;2022-07-05T12:09:52;101246.81;;;23.81;48.18
61472;BME280;47337;54.068;12.114;2022-07-05T12:12:36;101244.41;;;23.73;48.12
61472;BME280;47337;54.068;12.114;2022-07-05T12:15:12;101251.13;;;23.33;49.13
61472;BME280;47337;54.068;12.114;2022-07-05T12:17:39;101250.34;;;23.05;49.74
61472;BME280;47337;54.068;12.114;2022-07-05T12:20:07;101272.53;;;23.09;50.08
61472;BME280;47337;54.068;12.114;2022-07-05T12:22:36;101280.41;;;23.40;50.10
61472;BME280;47337;54.068;12.114;2022-07-05T12:25:06;101282.47;;;23.58;49.59
61472;BME280;47337;54.068;12.114;2022-07-05T12:27:36;101256.28;;;23.40;48.93
61472;BME280;47337;54.068;12.114;2022-07-05T12:30:03;101266.50;;;23.55;48.82
61472;BME280;47337;54.068;12.114;2022-07-05T12:32:30;101267.91;;;23.65;49.37
61472;BME280;47337;54.068;12.114;2022-07-05T12:34:59;101250.94;;;23.89;48.05
61472;BME280;47337;54.068;12.114;2022-07-05T12:37:27;101255.97;;;23.73;48.31
61472;BME280;47337;54.068;12.114;2022-07-05T12:40:06;101262.00;;;23.80;48.29
61472;BME280;47337;54.068;12.114;2022-07-05T12:42:34;101274.28;;;24.35;48.49
61472;BME280;47337;54.068;12.114;2022-07-05T12:45:26;101237.78;;;24.30;47.11
61472;BME280;47337;54.068;12.114;2022-07-05T12:50:22;101274.00;;;23.70;49.08
61472;BME280;47337;54.068;12.114;2022-07-05T12:55:21;101309.16;;;24.11;49.66
61472;BME280;47337;54.068;12.114;2022-07-05T12:58:05;101287.66;;;23.87;49.16
61472;BME280;47337;54.068;12.114;2022-07-05T13:00:31;101280.44;;;24.37;48.24
61472;BME280;47337;54.068;12.114;2022-07-05T13:02:56;101265.88;;;24.20;48.17
61472;BME280;47337;54.068;12.114;2022-07-05T13:05:24;101281.28;;;24.61;48.18
61472;BME280;47337;54.068;12.114;2022-07-05T13:07:50;101271.81;;;24.29;48.11
61472;BME280;47337;54.068;12.114;2022-07-05T13:10:21;101284.53;;;24.24;49.29
61472;BME280;47337;54.068;12.114;2022-07-05T13:12:51;101278.78;;;23.62;49.96
61472;BME280;47337;54.068;12.114;2022-07-05T13:15:17;101291.91;;;23.17;51.12
61472;BME280;47337;54.068;12.114;2022-07-05T13:17:43;101298.44;;;23.34;51.16
61472;BME280;47337;54.068;12.114;2022-07-05T13:20:14;101302.19;;;23.30;51.24
61472;BME280;47337;54.068;12.114;2022-07-05T13:22:40;101292.78;;;23.17;50.79
61472;BME280;47337;54.068;12.114;2022-07-05T13:25:08;101262.63;;;22.56;50.31
61472;BME280;47337;54.068;12.114;2022-07-05T13:27:33;101276.72;;;22.89;50.85
61472;BME280;47337;54.068;12.114;2022-07-05T13:30:00;101287.28;;;22.66;50.66
61472;BME280;47337;54.068;12.114;2022-07-05T13:32:25;101272.41;;;22.85;50.44
61472;BME280;47337;54.068;12.114;2022-07-05T13:34:51;101274.88;;;22.91;50.44
61472;BME280;47337;54.068;12.114;2022-07-05T13:37:19;101245.41;;;22.91;49.07
61472;BME280;47337;54.068;12.114;2022-07-05T13:39:44;101219.34;;;22.98;48.00
61472;BME280;47337;54.068;12.114;2022-07-05T13:42:12;101226.47;;;22.70;48.35
61472;BME280;47337;54.068;12.114;2022-07-05T13:44:37;101245.81;;;22.79;48.63
61472;BME280;47337;54.068;12.114;2022-07-05T13:47:03;101245.34;;;22.37;49.24
61472;BME280;47337;54.068;12.114;2022-07-05T13:49:29;101259.81;;;22.59;49.72
61472;BME280;47337;54.068;12.114;2022-07-05T13:51:56;101281.88;;;22.38;50.66
61472;BME280;47337;54.068;12.114;2022-07-05T13:54:28;101287.41;;;22.91;50.46
61472;BME280;47337;54.068;12.114;2022-07-05T13:56:55;101263.00;;;22.44;50.15
61472;BME280;47337;54.068;12.114;2022-07-05T13:59:20;101300.22;;;22.52;51.19
61472;BME280;47337;54.068;12.114;2022-07-05T14:01:46;101291.00;;;22.33;51.41
61472;BME280;47337;54.068;12.114;2022-07-05T14:04:11;101302.38;;;22.39;52.17
61472;BME280;47337;54.068;12.114;2022-07-05T14:06:37;101310.13;;;22.48;52.29
61472;BME280;47337;54.068;12.114;2022-07-05T14:11:28;101326.19;;;22.17;53.14
61472;BME280;47337;54.068;12.114;2022-07-05T14:13:54;101337.81;;;22.47;53.11
61472;BME280;47337;54.068;12.114;2022-07-05T14:16:21;101312.06;;;22.14;52.69
61472;BME280;47337;54.068;12.114;2022-07-05T14:18:46;101304.75;;;22.19;52.13
61472;BME280;47337;54.068;12.114;2022-07-05T14:21:12;101268.38;;;22.13;50.43
61472;BME280;47337;54.068;12.114;2022-07-05T14:23:43;101272.09;;;22.08;50.93
61472;BME280;47337;54.068;12.114;2022-07-05T14:26:08;101272.66;;;22.19;50.55
61472;BME280;47337;54.068;12.114;2022-07-05T14:28:36;101288.22;;;22.05;51.54